X  Close Metar Aviation Weather Data     CYYC Calgary International Airport
Temperature
7°C Temperature
-2°C Dewpoint
53% Humidity



Wind
13 KM/H
8 MPH
4 M/S
7 KTS



210°
SSW
Current Conditions

Partly Cloudy Partly Cloudy
Pressure 1011.82 (hPa) - 29.88 (inHg)
Visibility 39.8 (mile) - 64 (km)
Airport
Airport-code CYYC

Location: Calgary International Airport
Distance: 4 (km)

Metar:
CYYC 161500Z 21007KT 40SM FEW050 FEW120 FEW140 BKN260 07/M02 A2988 RMK SC1AC1AC1CS4 SC TR SLP142

Time: 16-10-2021 09:00 MDT